Timeline UpdatesTrip UpdatesNews PostsPvt Posts♥♥Travel TipsAdmin PostsConv PostsFollowed PostsChat RequestsBlog PostsPNR Posts

Disclaimer
Search
 
 
Sat Dec 20, 2014 06:23:43 ISTHomeTrainsΣChainsAtlasPNRForumGalleryNewsFAQTripsMembersLoginFeedback
Latest...
1. Cancelled on 12/12/14 #1303578 2.Cancelled from 31/12/14-15/2/15 #1263410
Thu Dec 11, 2014 (12:39AM)
⇐ Return Journey: Train# 15484

14083⇒15483/Sikkim Mahananda Express

NO Time-Table Change.
Dec 11 (12:39AM)
Change Departure Station:
Change Arrival Station:
Post a Train Travel TipPost a Train Travel Tip **new
Post a Comment/Question/Picture/VideoPost a Comment/Question/Picture/Video
Pantry/Catering
✓ Pantry Car Avbl
✓ Catering Avbl
RSA - Rake Sharing
Rake/Coach Composition
LOCO-SLR-GS-GS-GS-AB-B1-PC-S11-S10-S9-S8-S7-S6-S5-S4-S3-S2-S1-GS-GS-GS-SLR
Loco
SGUJ WDP-4 (APDJ to PNBE), GZB/MGS WAP-4 (PNBE to DLI)
News    PNR    Forum    Time-Table    Availability    Fare Chart    Map    Arr/Dep History    Trips    Gallery    ΣChains    X/O    Timeline    
Travel Time: 15h 35m    29 halts    Distance: 659 km    Avg Speed: 42 km/hr
Type: Mail/Express
Zone: NFR/Northeast Frontier
Departs @ 09:50 (Avg 3h 37m late)
Platform# 1
SMTWTFS
Alipur Duar Junction/APDJ 
Arrives @ 01:25 +1 night (Avg 4h 37m late)
Platform# 4
SMTWTFS
Patna Junction/PNBE 

29 halts. 130 intermediate Stations between Alipur Duar Junction and Patna Junction

Show ALL intermediate Stations  

#TrkCodeStation NameX/OArrivesAvgDepartsAvgHaltPFDay#KmSpeedElevZoneAddress
1|--|APDJAlipur Duar Junction (3)»  -09:50+3:37110.07053mNFRDist - Alipurduar, West Bengal
2|--|HSAHasimara (3)X  10:20+3:4310:22+3:462m--134.863123mNFRDist - Alipurduar, West Bengal
3|--|DLODalgaon (3)  10:46+3:5410:47+3:561m1160.138120mNFRDist : Alipurduar, West Bengal
4|--|BNVBinnaguri (3)  11:01+3:5511:02+3:581m--169.165132mNFRDist : jalpaiguri, West Bengal
5|--|NMZNew Mal Junction (3)  11:43+4:0211:48+4:015m--1113.443161mNFRDist - Jalpaiguri, West Bengal
6|--|SGUJSiliguri Junction (6)X  12:55+3:5613:00+3:575m--1161.212120mNFRDist - Darjeeling, West Bengal
7|--|NJPNew Jalpaiguri Junction (8)X  13:35+3:3813:55+3:4320m31168.577114mNFRCity-Siliguri . Dist-Jalpaiguri, West Bengal
8%==%AUBAluabari Road (2)O  14:39+4:1614:41+4:162m21225.2630mNFRDist - uttar Dinajpur, West Bengal
9%==%KNEKishanGanj (3)O  15:10+4:0915:15+4:085m21255.87152mNFRKishanganj, Bihar
10%==%DLKDalkhola (3)X  15:39+4:0415:40+4:061m101284.35844mNFRDalkola, West Bengal
11%==%BOEBarsoi Junction (3)X  16:10+4:1016:12+4:122m--1313.45337mNFRdist- katihar, Bihar
12%==%AZRAzamnagar Road (3)X  16:27+4:1216:28+4:141m--1326.73134mNFRAzamnagar, Bihar
13%--%LAVLabha (2)  17:10+4:0917:11+4:111m11348.41529mNFRDist : Katihar, Bihar
14%--%KIRKatihar Junction (7)X  18:45+3:4219:00+3:4815m51371.44635mNFRKatihar 854105, Bihar
15%-=%SMOSemapurX  19:15+4:0219:16+4:031m--1382.96535mECRKatihar, Bihar
16%==%CRRKaragola Road  19:26+4:0719:27+4:101m--1393.67836mECRLachhmipur, Bihar
17%=-%KUEKurselaX  19:40+4:1519:41+4:191m--1410.64831mECRNH 31, Bihar
18%==%NNANaugachia (3)  20:04+4:2020:05+4:211m--1429.16437mECRBhagalpur, Bihar
19%==%THBThana Bihpur Junction (3)  20:20+4:2320:21+4:251m--1445.05139mECRThana Bihpur, Bihar
20%==%NNRNarayanpur (2)  20:30+4:2820:31+4:211m--1452.75439mECRNarayanpur, Bihar
21%==%PSRPasraha (3)  20:44+4:2420:45+4:271m--1464.35341mECRPasraha, Bihar
22%==%MSKMahes Khunt (2)X  20:59+4:3221:00+4:381m--1476.65737mECRMaheshkhunt, Bihar
23%==%MNEMansi Junction (4)X  21:11+4:4121:12+4:431m--1487.03343mECRMansi, Bihar
24%=-|KGGKhagaria Junction (3)X  21:28+4:3921:29+4:431m--1495.86243mECRKhagaria, Bihar
25%==%SKJSahibpur Kamal Junction (2)  21:41+4:4221:42+4:301m--1508.24241mECRShahpur Kamal, Bihar
26%==%LKNLakhminia (3)X  21:56+4:5121:57+4:541m--1517.93645mECRBegusarai, Bihar
27%==%BGSBegusarai (3)  22:27+4:2822:28+4:301m--1535.72246mECRBegusarai, Bihar
28%--/BJUBarauni Junction (9)X  23:05+4:0523:10+4:065m11549.22849mECRBegusarai, Bihar
29/--/MKAMokama Junction (4)  23:54+5:0523:56+5:072m31569.88848mECRPatna, Bihar
30/==/BKPBakhtiyarpur Junction (5)X  00:26+5:3000:28+5:342m--2613.74851mECRPatna, Bihar
31/==/PNBEPatna Junction (10)•X  01:25+4:3701:50+4:1925m42659.13557mECRPatna 800001, Bihar
32/==/DNRDanapur (5)  02:06+4:5802:08+4:582m--2668.59158mECRKhagaul, Bihar
33/==/ARAAra Junction (3)X  02:34+5:0702:36+5:082m--2708.07163mECRDistt: Bhojpur Ph 06182-233411, Bihar
34/==/BXRBuxar (3)X  03:34+4:2603:36+4:252m22776.54767mECRBuxar, Bihar
35/==/MGSMughal Sarai Junction (8)  05:35+4:4205:45+4:4610m42870.44583mECRDistt: Chandauli Pin 232101, Uttar Pradesh
36/==/MZPMirzapur (3)XO  07:09+5:0007:10+5:041m--2933.64088mNCRMirzapur, Uttar Pradesh
37/==/BDLVindhyachal (3)  07:21+4:2607:22+4:321m--2940.97788mNCRMirzapur, Uttar Pradesh
38/==/NYNNaini Junction (4)  08:20+5:4308:22+5:432m221015.72498mNCRAllahabad, Uttar Pradesh
39/==/ALDAllahabad Junction (10)XOO  08:40+5:3108:55+5:2715m321022.864100mNCRAllahabad 211003, Uttar Pradesh
40/==/FTPFatehpur (3)  10:44+5:1810:45+5:201m--21139.552120mNCRFatehpur, Uttar Pradesh
41/==/CNBKanpur Central (10)X  12:15+5:3712:25+5:3910m521217.129128mNCRKANPUR-208 001, Uttar Pradesh
42/==/PNKPanki (3)XO  12:49+4:4312:50+4:441m--21228.637129mNCRKANPUR-208 020, Uttar Pradesh
43/==/RURARura (4)  13:43+4:2413:44+4:261m--21261.457137mNCRJhinjhak, Uttar Pradesh
44/==/JJKJhinjhak (3)  14:04+5:0314:05+5:081m321280.570140mNCRAuraiya, Uttar Pradesh
45/==/PHDPhaphund (4)  14:22+5:2314:23+5:271m--21300.363146mNCRdist. Auraiya, Uttar Pradesh
46/==/ULDAchalda (3)  14:39+5:0114:40+5:041m--21317.165147mNCRDist. Auraiya(05688-1072), Uttar Pradesh
47/==/BNTBharthana (3)  14:58+4:4814:59+4:531m--21336.652147mNCRBharthana, Uttar Pradesh
48/==/ETWEtawah (5)  15:22+5:2915:23+5:351m221356.574154mNCRDistt. Etawah, Uttar Pradesh
49/==/SKBShikohabad Junction (4)  16:08+5:5016:09+5:521m321411.957166mNCRDistrict Firozabad, Uttar Pradesh
50/==/FZDFirozabad (4)XO  16:30+5:2616:31+5:301m321431.816164mNCRFirozabad, Uttar Pradesh
51/==/TDLTundla Junction (5)XO  17:35+5:2717:45+5:2810m221448.370167mNCRDistt.Firozabad, Uttar Pradesh
52/==/JLSJalesar Road (1)X  18:09+5:3518:10+5:361m121476.255172mNCRMDR 106W, Uttar Pradesh
53/==/HRSHathras Junction (3)X  18:32+5:3518:33+5:361m--21496.382183mNCRMahamaya Nagar(05722-242803), Uttar Pradesh
54/==/ALJNAligarh Junction (4)  18:55+4:0819:00+4:085m321526.449192mNCRAligarh, Uttar Pradesh
55/==/KRJKhurja Junction (4)XO  19:53+2:1319:58+2:125m--21569.935199mNCRBulandshahr, Uttar Pradesh
56/==/GZBGhaziabad Junction (6)X  21:45+3:4221:47+3:422m321632.648217mNRGhaziabad, Uttar Pradesh
57/==/DSAShahdara Junction (4)  22:04+3:5622:05+3:561m--21646.211212mNRCircular Rd, Delhi NCT
58/==/DLIOld Delhi Junction (16)  22:40+3:34-1121652.5-219mNRNear Chandni Chowk Metro Station, Delhi NCT
Scroll to Top
Scroll to Bottom


Go to Mobile site